createdAt,value
2023-02-06T00:02:05.250Z,-6.99
2023-02-06T00:05:11.203Z,-7.02
2023-02-06T00:08:17.619Z,-6.97
2023-02-06T00:11:21.894Z,-7.11
2023-02-06T00:14:24.956Z,-7.17
2023-02-06T00:17:32.378Z,-7.09
2023-02-06T00:20:35.273Z,-7.18
2023-02-06T00:23:38.967Z,-7.25
2023-02-06T00:26:52.132Z,-7.17
2023-02-06T00:29:58.247Z,-7.18
2023-02-06T00:33:01.178Z,-7.21
2023-02-06T00:36:05.413Z,-7.21
2023-02-06T00:39:10.026Z,-7.23
2023-02-06T00:42:13.023Z,-7.26
2023-02-06T00:45:17.785Z,-7.31
2023-02-06T00:48:21.186Z,-7.32
2023-02-06T00:51:24.451Z,-7.31
2023-02-06T00:54:28.684Z,-7.27
2023-02-06T00:57:35.120Z,-7.32
2023-02-06T01:00:38.875Z,-7.28
2023-02-06T01:03:41.730Z,-7.36
2023-02-06T01:06:45.306Z,-7.36
2023-02-06T01:09:50.414Z,-7.39
2023-02-06T01:12:54.755Z,-7.40
2023-02-06T01:16:22.579Z,-7.36
2023-02-06T01:19:30.213Z,-7.40
2023-02-06T01:22:35.071Z,-7.39
2023-02-06T01:25:42.241Z,-7.47
2023-02-06T01:28:51.091Z,-7.44
2023-02-06T01:31:59.510Z,-7.43
2023-02-06T01:35:02.292Z,-7.34
2023-02-06T01:38:05.749Z,-7.37
2023-02-06T01:41:11.208Z,-7.39
2023-02-06T01:44:18.420Z,-7.42
2023-02-06T01:47:23.778Z,-7.43
2023-02-06T01:50:33.557Z,-7.49
2023-02-06T01:53:39.398Z,-7.58
2023-02-06T01:56:50.087Z,-7.37
2023-02-06T02:00:01.828Z,-7.36
2023-02-06T02:03:16.458Z,-7.25
2023-02-06T02:06:24.309Z,-7.12
2023-02-06T02:09:27.521Z,-7.09
2023-02-06T02:12:32.718Z,-7.00
2023-02-06T02:15:46.901Z,-7.12
2023-02-06T02:18:53.269Z,-7.03
2023-02-06T02:22:33.807Z,-7.05
2023-02-06T02:25:58.933Z,-7.01
2023-02-06T02:29:20.691Z,-6.84
2023-02-06T02:32:40.950Z,-6.75
2023-02-06T02:35:54.379Z,-6.85
2023-02-06T02:39:01.030Z,-6.92
2023-02-06T02:42:20.981Z,-7.01
2023-02-06T02:45:29.752Z,-7.06
2023-02-06T02:48:40.380Z,-7.10
2023-02-06T02:51:45.330Z,-7.12
2023-02-06T02:54:50.723Z,-7.27
2023-02-06T02:58:02.420Z,-7.33
2023-02-06T03:01:11.570Z,-7.32
2023-02-06T03:04:43.246Z,-7.23
2023-02-06T03:07:58.051Z,-7.30
2023-02-06T03:11:01.385Z,-7.34
2023-02-06T03:14:26.309Z,-7.35
2023-02-06T03:17:44.661Z,-7.42
2023-02-06T03:20:48.469Z,-7.41
2023-02-06T03:23:55.142Z,-7.55
2023-02-06T03:27:00.757Z,-7.46
2023-02-06T03:30:06.299Z,-7.48
2023-02-06T03:33:13.686Z,-7.43
2023-02-06T03:36:20.239Z,-7.52
2023-02-06T03:39:27.381Z,-7.60
2023-02-06T03:42:32.944Z,-7.69
2023-02-06T03:45:44.626Z,-7.75
2023-02-06T03:48:56.942Z,-7.73
2023-02-06T03:52:07.003Z,-7.68
2023-02-06T03:55:17.309Z,-7.73
2023-02-06T03:58:24.502Z,-7.69
2023-02-06T04:02:00.612Z,-7.76
2023-02-06T04:05:25.166Z,-7.94
2023-02-06T04:08:34.055Z,-7.87
2023-02-06T04:11:38.927Z,-7.88
2023-02-06T04:14:43.459Z,-7.88
2023-02-06T04:17:59.565Z,-7.86
2023-02-06T04:21:08.344Z,-7.85
2023-02-06T07:43:31.376Z,-5.58
2023-02-06T11:04:44.166Z,-0.17
2023-02-06T11:08:43.407Z,0.02
2023-02-06T11:47:56.154Z,1.94
2023-02-06T11:51:19.161Z,2.40
2023-02-06T11:54:57.105Z,2.51
2023-02-06T12:09:39.064Z,1.84
2023-02-06T12:13:32.446Z,1.54
2023-02-06T12:24:42.802Z,1.49
2023-02-06T12:28:17.118Z,1.55
2023-02-06T12:36:08.698Z,1.19
2023-02-06T12:39:35.489Z,1.06
2023-02-06T12:43:18.843Z,1.22
2023-02-06T12:51:27.009Z,0.88
2023-02-06T12:58:49.031Z,0.82
2023-02-06T13:02:45.924Z,0.70
2023-02-06T13:06:35.573Z,0.81
2023-02-06T13:10:38.316Z,1.08
2023-02-06T13:26:05.018Z,0.90
2023-02-06T13:29:55.273Z,0.82
2023-02-06T13:33:39.726Z,0.98
2023-02-06T13:37:20.654Z,1.35
2023-02-06T13:40:51.646Z,1.14
2023-02-06T13:52:06.863Z,1.39
2023-02-06T14:00:19.648Z,0.54
2023-02-06T14:03:51.493Z,0.93
2023-02-06T14:07:43.233Z,0.97
2023-02-06T14:11:47.821Z,1.21
2023-02-06T14:15:49.572Z,1.15
2023-02-06T14:19:47.419Z,1.01
2023-02-06T14:23:39.591Z,0.84
2023-02-06T14:27:41.600Z,1.31
2023-02-06T14:31:50.987Z,1.43
2023-02-06T14:35:29.053Z,0.71
2023-02-06T14:39:03.546Z,0.58
2023-02-06T14:42:46.784Z,0.24
2023-02-06T14:46:33.958Z,-0.08
2023-02-06T14:50:42.413Z,-0.20
2023-02-06T14:54:38.835Z,-0.35
2023-02-06T14:58:34.489Z,-0.61
2023-02-06T15:02:24.810Z,-0.63
2023-02-06T15:06:09.541Z,-0.83
2023-02-06T15:09:49.093Z,-1.02
2023-02-06T15:13:36.092Z,-1.15
2023-02-06T15:17:21.829Z,-1.21
2023-02-06T15:25:24.455Z,-1.41
2023-02-06T15:29:06.971Z,-1.46
2023-02-06T15:50:56.037Z,-2.04
2023-02-06T16:05:52.852Z,-2.36
2023-02-06T16:09:33.484Z,-2.57
2023-02-06T16:20:34.224Z,-2.65
2023-02-06T16:42:34.895Z,-2.93
2023-02-06T16:53:35.307Z,-3.32
2023-02-06T17:19:55.743Z,-4.13
2023-02-06T17:23:41.958Z,-3.98
2023-02-06T17:27:29.938Z,-4.17
2023-02-06T17:31:06.008Z,-4.21
2023-02-06T17:42:01.064Z,-4.55
2023-02-06T17:45:39.872Z,-4.63
2023-02-06T17:49:20.032Z,-4.74
2023-02-06T17:53:16.991Z,-4.78
2023-02-06T18:00:32.404Z,-4.48
2023-02-06T18:08:10.409Z,-4.54
2023-02-06T18:11:53.027Z,-4.69
2023-02-06T18:30:15.823Z,-4.88
2023-02-06T18:37:32.964Z,-5.13
2023-02-06T18:52:06.934Z,-5.12
2023-02-06T18:59:43.855Z,-5.31
2023-02-06T19:18:38.779Z,-5.13
2023-02-06T19:25:58.163Z,-4.94
2023-02-06T19:29:35.618Z,-4.79
2023-02-06T19:32:56.728Z,-4.68
2023-02-06T19:43:38.033Z,-4.47
2023-02-06T19:51:22.828Z,-4.53
2023-02-06T20:02:40.118Z,-4.77
2023-02-06T20:46:03.694Z,-6.12
2023-02-06T20:49:42.985Z,-6.16
2023-02-06T20:53:15.562Z,-6.17
2023-02-06T20:56:51.446Z,-6.19
2023-02-06T21:00:31.502Z,-6.08
2023-02-06T21:04:09.201Z,-5.96
2023-02-06T21:07:43.863Z,-6.11
2023-02-06T21:11:17.981Z,-6.12
2023-02-06T21:14:50.574Z,-6.07
2023-02-06T21:18:12.285Z,-5.95
2023-02-06T21:21:49.609Z,-5.96
2023-02-06T21:25:31.485Z,-6.07
2023-02-06T21:28:49.443Z,-6.23
2023-02-06T21:32:24.811Z,-6.43
2023-02-06T21:35:52.888Z,-6.46
2023-02-06T21:39:17.798Z,-6.50
2023-02-06T21:42:58.232Z,-6.62
2023-02-06T21:46:36.659Z,-6.66
2023-02-06T21:49:59.841Z,-6.69
2023-02-06T21:53:44.459Z,-6.76
2023-02-06T21:57:17.759Z,-6.81
2023-02-06T22:01:13.745Z,-6.92
2023-02-06T22:04:33.776Z,-7.04
2023-02-06T22:07:51.091Z,-6.95
2023-02-06T22:11:26.130Z,-6.99
2023-02-06T22:15:02.175Z,-6.95
2023-02-06T22:18:22.781Z,-7.06
2023-02-06T22:21:46.850Z,-7.10
2023-02-06T22:25:08.082Z,-7.15
2023-02-06T22:28:33.945Z,-7.15
2023-02-06T22:32:13.171Z,-7.28
2023-02-06T22:36:02.237Z,-7.26
2023-02-06T22:39:22.206Z,-7.29
2023-02-06T22:42:51.062Z,-7.26
2023-02-06T22:46:56.835Z,-7.37
2023-02-06T22:50:36.859Z,-7.36
2023-02-06T22:54:12.696Z,-7.36
2023-02-06T22:57:30.438Z,-7.37
2023-02-06T23:01:03.040Z,-7.40
2023-02-06T23:04:28.593Z,-7.51
2023-02-06T23:08:02.837Z,-7.54
2023-02-06T23:11:32.416Z,-7.58
2023-02-06T23:14:50.119Z,-7.63
2023-02-06T23:18:26.518Z,-7.56
2023-02-06T23:21:47.371Z,-7.71
2023-02-06T23:25:05.471Z,-7.69
2023-02-06T23:28:42.141Z,-7.61
2023-02-06T23:32:14.484Z,-7.75
2023-02-06T23:35:50.558Z,-7.73
2023-02-06T23:39:08.111Z,-7.80
2023-02-06T23:42:44.128Z,-7.72
2023-02-06T23:46:20.627Z,-7.73
2023-02-06T23:49:38.357Z,-7.84
2023-02-06T23:52:56.017Z,-7.85
2023-02-06T23:56:30.202Z,-7.91
